sensor_id;sensor_type;location;lat;lon;timestamp;pressure;altitude;pressure_sealevel;temperature;humidity
29417;BME280;28421;51.030;4.006;2023-03-18T00:02:18;100777.19;;;12.22;81.46
29417;BME280;28421;51.030;4.006;2023-03-18T00:04:44;100763.91;;;12.21;81.46
29417;BME280;28421;51.030;4.006;2023-03-18T00:07:10;100813.09;;;12.52;81.03
29417;BME280;28421;51.030;4.006;2023-03-18T00:09:36;100786.22;;;12.29;80.66
29417;BME280;28421;51.030;4.006;2023-03-18T00:12:03;100781.09;;;12.19;80.39
29417;BME280;28421;51.030;4.006;2023-03-18T00:14:29;100771.31;;;12.18;80.13
29417;BME280;28421;51.030;4.006;2023-03-18T00:16:55;100786.03;;;12.31;79.60
29417;BME280;28421;51.030;4.006;2023-03-18T00:19:20;100804.81;;;12.39;79.46
29417;BME280;28421;51.030;4.006;2023-03-18T00:21:46;100771.41;;;12.10;79.68
29417;BME280;28421;51.030;4.006;2023-03-18T00:24:11;100806.88;;;12.37;79.41
29417;BME280;28421;51.030;4.006;2023-03-18T00:26:36;100835.06;;;12.49;79.80
29417;BME280;28421;51.030;4.006;2023-03-18T00:29:03;100834.66;;;12.52;79.47
29417;BME280;28421;51.030;4.006;2023-03-18T00:31:28;100783.34;;;12.16;79.62
29417;BME280;28421;51.030;4.006;2023-03-18T05:37:31;100882.50;;;9.08;90.62
29417;BME280;28421;51.030;4.006;2023-03-18T05:40:04;100887.00;;;9.08;91.42
29417;BME280;28421;51.030;4.006;2023-03-18T05:42:36;100911.91;;;9.26;91.08
29417;BME280;28421;51.030;4.006;2023-03-18T05:45:04;100906.69;;;9.25;90.98
29417;BME280;28421;51.030;4.006;2023-03-18T05:47:30;100885.75;;;9.28;90.26
29417;BME280;28421;51.030;4.006;2023-03-18T05:50:02;100885.59;;;9.30;89.96
29417;BME280;28421;51.030;4.006;2023-03-18T05:52:29;100900.72;;;9.39;89.57
29417;BME280;28421;51.030;4.006;2023-03-18T05:54:59;100859.88;;;9.11;89.38
29417;BME280;28421;51.030;4.006;2023-03-18T05:57:29;100885.75;;;9.28;89.30
29417;BME280;28421;51.030;4.006;2023-03-18T06:00:00;100901.34;;;9.33;89.35
29417;BME280;28421;51.030;4.006;2023-03-18T06:02:27;100888.28;;;9.30;89.24
29417;BME280;28421;51.030;4.006;2023-03-18T06:04:53;100890.47;;;9.34;89.27
29417;BME280;28421;51.030;4.006;2023-03-18T06:07:19;100872.69;;;9.25;89.26
29417;BME280;28421;51.030;4.006;2023-03-18T06:09:45;100907.09;;;9.38;89.50
29417;BME280;28421;51.030;4.006;2023-03-18T06:12:10;100887.78;;;9.34;89.87
29417;BME280;28421;51.030;4.006;2023-03-18T06:14:36;100881.63;;;9.42;89.55
29417;BME280;28421;51.030;4.006;2023-03-18T06:17:03;100880.44;;;9.44;89.57
29417;BME280;28421;51.030;4.006;2023-03-18T06:19:29;100871.53;;;9.44;89.07
29417;BME280;28421;51.030;4.006;2023-03-18T06:21:56;100905.34;;;9.71;89.25
29417;BME280;28421;51.030;4.006;2023-03-18T06:24:21;100939.44;;;10.03;88.99
29417;BME280;28421;51.030;4.006;2023-03-18T06:26:47;100901.84;;;9.79;88.92
29417;BME280;28421;51.030;4.006;2023-03-18T06:29:13;100883.34;;;9.76;88.98
29417;BME280;28421;51.030;4.006;2023-03-18T06:31:38;100946.84;;;10.17;89.10
29417;BME280;28421;51.030;4.006;2023-03-18T06:34:06;100906.72;;;10.00;89.17
29417;BME280;28421;51.030;4.006;2023-03-18T06:36:34;100913.44;;;10.12;88.48
29417;BME280;28421;51.030;4.006;2023-03-18T06:39:03;100872.44;;;9.85;88.42
29417;BME280;28421;51.030;4.006;2023-03-18T06:41:29;100901.00;;;10.11;88.20
29417;BME280;28421;51.030;4.006;2023-03-18T06:44:05;100928.91;;;10.26;87.73
29417;BME280;28421;51.030;4.006;2023-03-18T06:46:31;100894.44;;;9.97;87.96
29417;BME280;28421;51.030;4.006;2023-03-18T06:48:58;100925.16;;;10.11;88.22
29417;BME280;28421;51.030;4.006;2023-03-18T06:51:29;100880.00;;;9.98;88.20
29417;BME280;28421;51.030;4.006;2023-03-18T06:53:55;100908.22;;;10.10;88.00
29417;BME280;28421;51.030;4.006;2023-03-18T06:56:21;100910.09;;;10.26;87.63
29417;BME280;28421;51.030;4.006;2023-03-18T06:58:59;100911.59;;;10.12;87.92
29417;BME280;28421;51.030;4.006;2023-03-18T07:01:26;100886.41;;;9.97;87.82
29417;BME280;28421;51.030;4.006;2023-03-18T07:03:54;100936.44;;;10.23;87.86
29417;BME280;28421;51.030;4.006;2023-03-18T07:06:19;100934.94;;;10.28;87.47
29417;BME280;28421;51.030;4.006;2023-03-18T07:08:46;100941.19;;;10.29;88.01
29417;BME280;28421;51.030;4.006;2023-03-18T07:11:12;100918.81;;;10.04;88.42
29417;BME280;28421;51.030;4.006;2023-03-18T07:13:40;100915.09;;;10.05;88.22
29417;BME280;28421;51.030;4.006;2023-03-18T07:16:13;100929.22;;;10.23;87.92
29417;BME280;28421;51.030;4.006;2023-03-18T07:18:39;100935.78;;;10.20;87.92
29417;BME280;28421;51.030;4.006;2023-03-18T07:21:05;100879.66;;;9.77;88.63
29417;BME280;28421;51.030;4.006;2023-03-18T07:23:30;100933.41;;;10.01;88.87
29417;BME280;28421;51.030;4.006;2023-03-18T07:25:56;100887.72;;;9.85;88.81
29417;BME280;28421;51.030;4.006;2023-03-18T07:28:22;100927.03;;;10.10;89.02
29417;BME280;28421;51.030;4.006;2023-03-18T07:30:49;100935.41;;;10.24;88.69
29417;BME280;28421;51.030;4.006;2023-03-18T07:33:14;100900.47;;;10.07;88.69
29417;BME280;28421;51.030;4.006;2023-03-18T07:35:40;100946.16;;;10.24;88.75
29417;BME280;28421;51.030;4.006;2023-03-18T07:38:09;100915.44;;;10.18;88.56
29417;BME280;28421;51.030;4.006;2023-03-18T07:40:36;100946.56;;;10.37;88.37
29417;BME280;28421;51.030;4.006;2023-03-18T07:43:03;100907.59;;;10.25;88.59
29417;BME280;28421;51.030;4.006;2023-03-18T07:45:28;100951.91;;;10.61;88.73
29417;BME280;28421;51.030;4.006;2023-03-18T07:47:54;100929.22;;;10.64;87.36
29417;BME280;28421;51.030;4.006;2023-03-18T07:50:19;100956.25;;;10.87;87.45
29417;BME280;28421;51.030;4.006;2023-03-18T07:52:45;100981.09;;;11.05;87.21
29417;BME280;28421;51.030;4.006;2023-03-18T07:55:11;100959.41;;;10.90;87.17
29417;BME280;28421;51.030;4.006;2023-03-18T07:57:37;100984.75;;;11.20;86.63
29417;BME280;28421;51.030;4.006;2023-03-18T08:00:04;100947.44;;;11.09;86.03
29417;BME280;28421;51.030;4.006;2023-03-18T08:02:38;100933.81;;;11.03;86.72
29417;BME280;28421;51.030;4.006;2023-03-18T08:05:04;100972.72;;;11.39;86.07
29417;BME280;28421;51.030;4.006;2023-03-18T08:07:31;100968.03;;;11.41;85.68
29417;BME280;28421;51.030;4.006;2023-03-18T08:09:57;100953.16;;;11.54;85.34
29417;BME280;28421;51.030;4.006;2023-03-18T08:12:24;100950.97;;;11.80;84.74
29417;BME280;28421;51.030;4.006;2023-03-18T08:14:50;100947.72;;;11.93;83.57
29417;BME280;28421;51.030;4.006;2023-03-18T08:17:16;100940.50;;;12.16;82.99
29417;BME280;28421;51.030;4.006;2023-03-18T08:19:42;100996.31;;;12.54;81.83
29417;BME280;28421;51.030;4.006;2023-03-18T08:22:08;100938.69;;;12.32;80.87
29417;BME280;28421;51.030;4.006;2023-03-18T08:24:35;100954.44;;;12.43;80.92
29417;BME280;28421;51.030;4.006;2023-03-18T08:27:01;100960.44;;;12.53;80.79
29417;BME280;28421;51.030;4.006;2023-03-18T08:29:27;100976.06;;;12.58;80.15
29417;BME280;28421;51.030;4.006;2023-03-18T08:31:53;100963.25;;;12.75;79.72
29417;BME280;28421;51.030;4.006;2023-03-18T08:34:18;101001.34;;;12.94;79.24
29417;BME280;28421;51.030;4.006;2023-03-18T08:36:44;100993.09;;;13.11;77.85
29417;BME280;28421;51.030;4.006;2023-03-18T08:39:10;100974.22;;;13.26;77.73
29417;BME280;28421;51.030;4.006;2023-03-18T08:41:36;100987.78;;;13.47;76.48
29417;BME280;28421;51.030;4.006;2023-03-18T08:44:02;100962.28;;;13.20;75.73
29417;BME280;28421;51.030;4.006;2023-03-18T08:46:30;100995.53;;;13.50;75.68
29417;BME280;28421;51.030;4.006;2023-03-18T08:48:56;101021.06;;;13.33;76.07
29417;BME280;28421;51.030;4.006;2023-03-18T08:51:21;100972.31;;;12.97;75.69
29417;BME280;28421;51.030;4.006;2023-03-18T08:53:47;101012.38;;;13.23;75.99
29417;BME280;28421;51.030;4.006;2023-03-18T08:56:12;100980.44;;;13.26;75.42
29417;BME280;28421;51.030;4.006;2023-03-18T08:58:39;101003.75;;;13.27;75.01
29417;BME280;28421;51.030;4.006;2023-03-18T09:01:04;101013.03;;;13.25;75.08
29417;BME280;28421;51.030;4.006;2023-03-18T09:03:30;100973.25;;;13.18;74.68
29417;BME280;28421;51.030;4.006;2023-03-18T09:05:56;100966.72;;;12.83;75.42
29417;BME280;28421;51.030;4.006;2023-03-18T09:08:22;100987.34;;;12.76;75.55
29417;BME280;28421;51.030;4.006;2023-03-18T09:10:50;100987.13;;;12.63;76.92
29417;BME280;28421;51.030;4.006;2023-03-18T09:13:18;100996.72;;;12.65;77.45
29417;BME280;28421;51.030;4.006;2023-03-18T09:15:43;100998.41;;;12.81;76.78
29417;BME280;28421;51.030;4.006;2023-03-18T09:18:08;100950.13;;;12.57;77.35
29417;BME280;28421;51.030;4.006;2023-03-18T09:20:34;100971.63;;;12.65;78.09
29417;BME280;28421;51.030;4.006;2023-03-18T09:22:59;100945.63;;;12.49;77.83
29417;BME280;28421;51.030;4.006;2023-03-18T09:25:25;101014.00;;;12.94;77.66
29417;BME280;28421;51.030;4.006;2023-03-18T09:27:51;101002.81;;;12.97;77.52
29417;BME280;28421;51.030;4.006;2023-03-18T09:30:17;100957.94;;;12.81;77.11
29417;BME280;28421;51.030;4.006;2023-03-18T09:32:43;101012.69;;;13.28;76.56
29417;BME280;28421;51.030;4.006;2023-03-18T09:35:09;100963.19;;;12.98;76.54
29417;BME280;28421;51.030;4.006;2023-03-18T09:37:36;100941.44;;;13.29;76.15
29417;BME280;28421;51.030;4.006;2023-03-18T09:40:02;100987.47;;;13.86;75.67
29417;BME280;28421;51.030;4.006;2023-03-18T09:42:44;101015.63;;;14.13;73.81
29417;BME280;28421;51.030;4.006;2023-03-18T09:53:55;100983.69;;;13.66;74.08
29417;BME280;28421;51.030;4.006;2023-03-18T09:56:25;100978.03;;;13.46;74.53
29417;BME280;28421;51.030;4.006;2023-03-18T09:59:03;100974.44;;;13.01;75.36
29417;BME280;28421;51.030;4.006;2023-03-18T10:01:32;100977.56;;;13.28;75.07
29417;BME280;28421;51.030;4.006;2023-03-18T10:06:32;100980.53;;;13.33;75.14
29417;BME280;28421;51.030;4.006;2023-03-18T10:09:28;101018.13;;;13.64;75.12
29417;BME280;28421;51.030;4.006;2023-03-18T10:12:14;100996.47;;;13.42;75.32
29417;BME280;28421;51.030;4.006;2023-03-18T10:14:48;101020.75;;;13.72;74.62
29417;BME280;28421;51.030;4.006;2023-03-18T10:17:23;101017.59;;;13.68;74.89
29417;BME280;28421;51.030;4.006;2023-03-18T10:19:54;100995.44;;;13.43;74.41
29417;BME280;28421;51.030;4.006;2023-03-18T10:25:24;101026.75;;;13.89;74.16
29417;BME280;28421;51.030;4.006;2023-03-18T10:28:35;100977.25;;;13.67;73.70
29417;BME280;28421;51.030;4.006;2023-03-18T10:33:53;101032.28;;;14.17;72.84
29417;BME280;28421;51.030;4.006;2023-03-18T10:36:41;100971.00;;;13.66;73.09
29417;BME280;28421;51.030;4.006;2023-03-18T10:39:17;101003.34;;;14.11;72.58
29417;BME280;28421;51.030;4.006;2023-03-18T10:41:47;100989.13;;;14.24;72.79
29417;BME280;28421;51.030;4.006;2023-03-18T10:44:40;101011.00;;;14.72;72.92
29417;BME280;28421;51.030;4.006;2023-03-18T10:47:10;101032.91;;;14.98;71.74
29417;BME280;28421;51.030;4.006;2023-03-18T10:49:47;100994.91;;;14.85;71.12
29417;BME280;28421;51.030;4.006;2023-03-18T10:52:33;101025.34;;;15.22;70.52
29417;BME280;28421;51.030;4.006;2023-03-18T10:55:01;100966.84;;;14.64;69.17
29417;BME280;28421;51.030;4.006;2023-03-18T10:57:27;101030.03;;;14.78;69.06
29417;BME280;28421;51.030;4.006;2023-03-18T10:59:52;100990.16;;;14.65;70.82
29417;BME280;28421;51.030;4.006;2023-03-18T11:02:35;100976.38;;;14.60;70.25
29417;BME280;28421;51.030;4.006;2023-03-18T11:05:14;101021.47;;;15.03;69.35
29417;BME280;28421;51.030;4.006;2023-03-18T11:07:56;101017.28;;;15.00;69.66
29417;BME280;28421;51.030;4.006;2023-03-18T11:10:26;101025.16;;;14.95;70.19
29417;BME280;28421;51.030;4.006;2023-03-18T11:13:00;101001.16;;;14.85;68.19
29417;BME280;28421;51.030;4.006;2023-03-18T11:15:28;100957.38;;;14.54;68.95
29417;BME280;28421;51.030;4.006;2023-03-18T11:17:58;100982.38;;;14.84;69.36
29417;BME280;28421;51.030;4.006;2023-03-18T11:20:39;100985.19;;;14.97;69.70
29417;BME280;28421;51.030;4.006;2023-03-18T11:23:35;101026.47;;;15.34;68.84
29417;BME280;28421;51.030;4.006;2023-03-18T11:26:28;100991.00;;;15.22;67.24
29417;BME280;28421;51.030;4.006;2023-03-18T11:29:12;101014.06;;;15.53;66.89
29417;BME280;28421;51.030;4.006;2023-03-18T11:31:48;100972.66;;;15.24;66.68
29417;BME280;28421;51.030;4.006;2023-03-18T11:34:18;101033.66;;;15.55;66.50
29417;BME280;28421;51.030;4.006;2023-03-18T11:37:02;100983.44;;;15.17;65.38
29417;BME280;28421;51.030;4.006;2023-03-18T11:39:39;100993.28;;;15.25;66.49
29417;BME280;28421;51.030;4.006;2023-03-18T11:42:20;100964.00;;;15.07;65.88
29417;BME280;28421;51.030;4.006;2023-03-18T11:44:46;100997.75;;;15.39;66.25
29417;BME280;28421;51.030;4.006;2023-03-18T11:47:21;100981.28;;;15.41;65.92
29417;BME280;28421;51.030;4.006;2023-03-18T11:49:48;101018.19;;;15.83;66.21
29417;BME280;28421;51.030;4.006;2023-03-18T11:52:31;101009.53;;;16.01;65.80
29417;BME280;28421;51.030;4.006;2023-03-18T12:06:17;100953.63;;;15.52;63.06
29417;BME280;28421;51.030;4.006;2023-03-18T12:11:39;100935.78;;;15.71;64.07
29417;BME280;28421;51.030;4.006;2023-03-18T12:17:28;100990.59;;;16.41;65.23
29417;BME280;28421;51.030;4.006;2023-03-18T12:20:06;100948.22;;;16.27;61.13
29417;BME280;28421;51.030;4.006;2023-03-18T12:28:09;100967.63;;;16.37;61.12
29417;BME280;28421;51.030;4.006;2023-03-18T12:33:37;100927.34;;;16.34;60.15
29417;BME280;28421;51.030;4.006;2023-03-18T12:41:44;100978.91;;;16.67;60.02
29417;BME280;28421;51.030;4.006;2023-03-18T12:49:27;100969.34;;;16.78;60.54
29417;BME280;28421;51.030;4.006;2023-03-18T12:52:07;100945.06;;;17.03;59.24
29417;BME280;28421;51.030;4.006;2023-03-18T12:54:50;100938.63;;;16.90;57.24
29417;BME280;28421;51.030;4.006;2023-03-18T12:57:44;100964.75;;;16.78;58.20
29417;BME280;28421;51.030;4.006;2023-03-18T13:00:38;100940.50;;;16.83;57.25
29417;BME280;28421;51.030;4.006;2023-03-18T13:03:27;100980.59;;;16.95;55.69
29417;BME280;28421;51.030;4.006;2023-03-18T13:06:23;100964.09;;;16.70;56.13
29417;BME280;28421;51.030;4.006;2023-03-18T13:09:12;100976.84;;;16.69;57.17
29417;BME280;28421;51.030;4.006;2023-03-18T13:11:53;100929.03;;;16.55;57.13
29417;BME280;28421;51.030;4.006;2023-03-18T13:17:14;100950.13;;;16.59;57.33
29417;BME280;28421;51.030;4.006;2023-03-18T13:19:42;100923.81;;;16.40;56.78
29417;BME280;28421;51.030;4.006;2023-03-18T13:31:35;100954.78;;;17.50;55.66
29417;BME280;28421;51.030;4.006;2023-03-18T13:40:19;100925.59;;;17.26;54.86
29417;BME280;28421;51.030;4.006;2023-03-18T13:42:50;100932.63;;;17.40;54.89
29417;BME280;28421;51.030;4.006;2023-03-18T13:47:54;100926.97;;;17.42;55.01
29417;BME280;28421;51.030;4.006;2023-03-18T13:52:47;100927.44;;;17.32;54.43
29417;BME280;28421;51.030;4.006;2023-03-18T13:55:25;100914.72;;;17.26;54.12
29417;BME280;28421;51.030;4.006;2023-03-18T14:00:38;100947.72;;;17.36;55.39
29417;BME280;28421;51.030;4.006;2023-03-18T14:16:10;100894.97;;;16.79;56.11
29417;BME280;28421;51.030;4.006;2023-03-18T14:18:36;100938.59;;;17.10;55.99
29417;BME280;28421;51.030;4.006;2023-03-18T14:21:04;100884.25;;;17.04;55.55
29417;BME280;28421;51.030;4.006;2023-03-18T14:23:42;100937.66;;;17.36;55.90
29417;BME280;28421;51.030;4.006;2023-03-18T14:26:23;100891.81;;;17.02;55.89
29417;BME280;28421;51.030;4.006;2023-03-18T14:39:37;100890.19;;;16.48;56.20
29417;BME280;28421;51.030;4.006;2023-03-18T14:42:10;100885.16;;;16.58;57.47
29417;BME280;28421;51.030;4.006;2023-03-18T14:44:58;100874.13;;;16.20;56.87
29417;BME280;28421;51.030;4.006;2023-03-18T14:47:57;100917.13;;;16.09;58.10
29417;BME280;28421;51.030;4.006;2023-03-18T14:54:06;100899.78;;;16.10;59.19
29417;BME280;28421;51.030;4.006;2023-03-18T14:56:40;100855.97;;;16.07;58.25
29417;BME280;28421;51.030;4.006;2023-03-18T14:59:13;100871.81;;;16.36;58.09
29417;BME280;28421;51.030;4.006;2023-03-18T15:01:40;100827.59;;;16.23;57.56
29417;BME280;28421;51.030;4.006;2023-03-18T15:04:14;100855.53;;;16.36;57.36
29417;BME280;28421;51.030;4.006;2023-03-18T15:06:43;100856.41;;;16.30;58.44
29417;BME280;28421;51.030;4.006;2023-03-18T15:09:15;100838.44;;;16.36;58.81
29417;BME280;28421;51.030;4.006;2023-03-18T15:11:43;100880.75;;;16.70;58.19
29417;BME280;28421;51.030;4.006;2023-03-18T15:14:21;100885.38;;;16.83;58.47
29417;BME280;28421;51.030;4.006;2023-03-18T15:16:49;100860.97;;;16.56;58.31
29417;BME280;28421;51.030;4.006;2023-03-18T15:19:17;100869.72;;;16.65;58.62
29417;BME280;28421;51.030;4.006;2023-03-18T15:21:43;100871.41;;;16.59;58.98
29417;BME280;28421;51.030;4.006;2023-03-18T15:24:29;100860.50;;;16.66;58.83
29417;BME280;28421;51.030;4.006;2023-03-18T15:27:18;100816.47;;;16.57;58.56
29417;BME280;28421;51.030;4.006;2023-03-18T15:29:54;100850.69;;;16.85;58.17
29417;BME280;28421;51.030;4.006;2023-03-18T15:32:27;100860.44;;;17.06;57.20
29417;BME280;28421;51.030;4.006;2023-03-18T15:35:25;100807.72;;;16.49;56.73
29417;BME280;28421;51.030;4.006;2023-03-18T15:38:11;100859.91;;;16.77;56.86
29417;BME280;28421;51.030;4.006;2023-03-18T15:40:59;100851.78;;;16.51;57.31
29417;BME280;28421;51.030;4.006;2023-03-18T15:43:31;100859.50;;;16.60;57.79
29417;BME280;28421;51.030;4.006;2023-03-18T15:46:29;100844.66;;;16.50;57.88
29417;BME280;28421;51.030;4.006;2023-03-18T15:49:04;100845.94;;;16.34;57.88
29417;BME280;28421;51.030;4.006;2023-03-18T15:51:40;100818.84;;;15.94;58.08
29417;BME280;28421;51.030;4.006;2023-03-18T15:56:53;100837.81;;;15.87;58.61
29417;BME280;28421;51.030;4.006;2023-03-18T15:59:28;100832.19;;;15.89;58.52
29417;BME280;28421;51.030;4.006;2023-03-18T16:01:54;100841.78;;;15.98;58.77
29417;BME280;28421;51.030;4.006;2023-03-18T16:04:21;100857.44;;;16.03;59.16
29417;BME280;28421;51.030;4.006;2023-03-18T16:06:47;100808.75;;;15.48;59.28
29417;BME280;28421;51.030;4.006;2023-03-18T16:09:20;100813.50;;;15.46;59.45
29417;BME280;28421;51.030;4.006;2023-03-18T16:11:49;100851.75;;;15.71;59.64
29417;BME280;28421;51.030;4.006;2023-03-18T16:14:18;100806.63;;;15.37;60.65
29417;BME280;28421;51.030;4.006;2023-03-18T16:16:45;100811.81;;;15.32;62.09
29417;BME280;28421;51.030;4.006;2023-03-18T16:19:17;100792.09;;;14.90;62.06
29417;BME280;28421;51.030;4.006;2023-03-18T16:21:46;100839.88;;;15.17;62.71
29417;BME280;28421;51.030;4.006;2023-03-18T16:24:12;100824.63;;;15.03;63.88
29417;BME280;28421;51.030;4.006;2023-03-18T16:26:37;100872.00;;;15.21;66.43
29417;BME280;28421;51.030;4.006;2023-03-18T16:29:15;100879.97;;;15.35;66.65
29417;BME280;28421;51.030;4.006;2023-03-18T16:31:42;100845.06;;;15.06;68.50
29417;BME280;28421;51.030;4.006;2023-03-18T16:34:14;100887.25;;;15.28;68.67
29417;BME280;28421;51.030;4.006;2023-03-18T16:36:40;100876.56;;;15.20;69.40
29417;BME280;28421;51.030;4.006;2023-03-18T16:39:17;100877.88;;;15.37;70.37
29417;BME280;28421;51.030;4.006;2023-03-18T16:41:44;100837.94;;;14.98;70.35
29417;BME280;28421;51.030;4.006;2023-03-18T16:44:18;100811.31;;;14.60;70.87
29417;BME280;28421;51.030;4.006;2023-03-18T16:46:46;100874.25;;;15.10;72.05
29417;BME280;28421;51.030;4.006;2023-03-18T16:49:25;100837.63;;;14.80;71.25
29417;BME280;28421;51.030;4.006;2023-03-18T16:51:53;100810.94;;;14.70;71.65
29417;BME280;28421;51.030;4.006;2023-03-18T16:54:28;100859.16;;;14.95;72.14
29417;BME280;28421;51.030;4.006;2023-03-18T16:56:56;100847.84;;;14.78;72.17
29417;BME280;28421;51.030;4.006;2023-03-18T16:59:23;100827.63;;;14.74;71.83
29417;BME280;28421;51.030;4.006;2023-03-18T17:01:50;100873.09;;;14.91;72.11
29417;BME280;28421;51.030;4.006;2023-03-18T17:04:27;100878.06;;;14.81;71.47
29417;BME280;28421;51.030;4.006;2023-03-18T17:06:55;100943.78;;;14.75;72.86
29417;BME280;28421;51.030;4.006;2023-03-18T17:09:20;100913.63;;;13.64;76.50
29417;BME280;28421;51.030;4.006;2023-03-18T17:11:48;100904.38;;;13.23;76.23
29417;BME280;28421;51.030;4.006;2023-03-18T17:14:35;100948.25;;;13.25;77.98
29417;BME280;28421;51.030;4.006;2023-03-18T17:17:06;100953.03;;;13.14;78.96
29417;BME280;28421;51.030;4.006;2023-03-18T17:19:32;100920.72;;;12.77;79.50
29417;BME280;28421;51.030;4.006;2023-03-18T17:22:00;100897.00;;;12.72;79.77
29417;BME280;28421;51.030;4.006;2023-03-18T17:24:26;100907.78;;;12.72;80.19
29417;BME280;28421;51.030;4.006;2023-03-18T17:26:52;100952.66;;;12.88;80.35
29417;BME280;28421;51.030;4.006;2023-03-18T17:29:24;100951.47;;;12.90;80.42
29417;BME280;28421;51.030;4.006;2023-03-18T17:31:52;100961.44;;;12.90;80.06
29417;BME280;28421;51.030;4.006;2023-03-18T17:34:18;100944.19;;;12.76;80.84
29417;BME280;28421;51.030;4.006;2023-03-18T17:36:44;100909.56;;;12.65;81.41
29417;BME280;28421;51.030;4.006;2023-03-18T17:39:10;100937.38;;;12.80;81.73
29417;BME280;28421;51.030;4.006;2023-03-18T17:41:36;100917.66;;;12.65;81.91
29417;BME280;28421;51.030;4.006;2023-03-18T17:44:01;100936.63;;;12.72;82.94
29417;BME280;28421;51.030;4.006;2023-03-18T17:46:27;100943.91;;;12.71;83.41
29417;BME280;28421;51.030;4.006;2023-03-18T17:48:53;100937.94;;;12.61;82.57
29417;BME280;28421;51.030;4.006;2023-03-18T17:51:20;100939.69;;;12.54;82.34
29417;BME280;28421;51.030;4.006;2023-03-18T17:53:52;100965.34;;;12.50;82.22
29417;BME280;28421;51.030;4.006;2023-03-18T17:56:19;100987.28;;;12.47;81.26
29417;BME280;28421;51.030;4.006;2023-03-18T17:58:47;100954.63;;;12.18;81.66
29417;BME280;28421;51.030;4.006;2023-03-18T18:01:19;100964.56;;;12.18;82.02
29417;BME280;28421;51.030;4.006;2023-03-18T18:03:46;100965.84;;;12.07;81.74
29417;BME280;28421;51.030;4.006;2023-03-18T18:06:21;100965.84;;;12.07;81.23
29417;BME280;28421;51.030;4.006;2023-03-18T18:08:48;100990.88;;;12.16;81.12
29417;BME280;28421;51.030;4.006;2023-03-18T18:11:21;100992.34;;;12.18;81.15
29417;BME280;28421;51.030;4.006;2023-03-18T18:13:47;100957.88;;;11.91;80.98
29417;BME280;28421;51.030;4.006;2023-03-18T18:16:13;100967.63;;;11.92;80.97
29417;BME280;28421;51.030;4.006;2023-03-18T18:18:39;100951.50;;;11.84;81.22
29417;BME280;28421;51.030;4.006;2023-03-18T18:21:09;100992.25;;;12.12;81.20
29417;BME280;28421;51.030;4.006;2023-03-18T18:23:39;100972.47;;;11.97;80.81
29417;BME280;28421;51.030;4.006;2023-03-18T18:29:47;100966.25;;;11.96;80.92
29417;BME280;28421;51.030;4.006;2023-03-18T18:32:13;100964.78;;;11.85;81.11
29417;BME280;28421;51.030;4.006;2023-03-18T18:34:39;100966.28;;;11.88;81.24
29417;BME280;28421;51.030;4.006;2023-03-18T18:37:10;100933.69;;;11.75;80.64
29417;BME280;28421;51.030;4.006;2023-03-18T18:39:47;100976.34;;;11.94;81.02
29417;BME280;28421;51.030;4.006;2023-03-18T18:42:33;100990.16;;;11.99;80.81
29417;BME280;28421;51.030;4.006;2023-03-18T18:45:52;100969.19;;;11.86;80.51
29417;BME280;28421;51.030;4.006;2023-03-18T19:04:15;100889.53;;;11.22;81.32
29417;BME280;28421;51.030;4.006;2023-03-18T19:18:52;101006.38;;;11.91;81.12
29417;BME280;28421;51.030;4.006;2023-03-18T19:30:14;100971.59;;;11.65;80.69
29417;BME280;28421;51.030;4.006;2023-03-18T19:37:14;101008.88;;;11.92;80.10
29417;BME280;28421;51.030;4.006;2023-03-18T19:47:24;100991.06;;;11.83;80.11
29417;BME280;28421;51.030;4.006;2023-03-18T19:57:59;100963.78;;;11.47;80.19
29417;BME280;28421;51.030;4.006;2023-03-18T20:00:24;100950.50;;;11.45;80.01
29417;BME280;28421;51.030;4.006;2023-03-18T20:10:26;100919.81;;;11.15;80.52
29417;BME280;28421;51.030;4.006;2023-03-18T20:17:06;101012.81;;;11.74;80.33
29417;BME280;28421;51.030;4.006;2023-03-18T20:19:58;100951.19;;;11.39;80.26
29417;BME280;28421;51.030;4.006;2023-03-18T20:22:27;100973.53;;;11.48;79.98
29417;BME280;28421;51.030;4.006;2023-03-18T20:25:17;101031.59;;;11.90;79.69
29417;BME280;28421;51.030;4.006;2023-03-18T20:32:36;100980.63;;;11.49;79.53
29417;BME280;28421;51.030;4.006;2023-03-18T20:45:54;101036.06;;;11.66;80.25
29417;BME280;28421;51.030;4.006;2023-03-18T21:07:33;101065.97;;;11.80;81.45
29417;BME280;28421;51.030;4.006;2023-03-18T21:13:30;101053.25;;;11.65;81.97
29417;BME280;28421;51.030;4.006;2023-03-18T21:16:15;101020.31;;;11.47;81.85
29417;BME280;28421;51.030;4.006;2023-03-18T21:18:43;101059.78;;;11.71;82.14
29417;BME280;28421;51.030;4.006;2023-03-18T21:25:08;101064.50;;;11.69;82.45
29417;BME280;28421;51.030;4.006;2023-03-18T21:27:44;101028.09;;;11.42;82.60
29417;BME280;28421;51.030;4.006;2023-03-18T21:30:21;101067.03;;;11.70;82.59
29417;BME280;28421;51.030;4.006;2023-03-18T21:32:54;101055.13;;;11.57;81.99
29417;BME280;28421;51.030;4.006;2023-03-18T21:35:27;101023.34;;;11.44;82.01
29417;BME280;28421;51.030;4.006;2023-03-18T21:37:53;101070.91;;;11.68;82.32
29417;BME280;28421;51.030;4.006;2023-03-18T21:40:31;101013.94;;;11.40;82.48
29417;BME280;28421;51.030;4.006;2023-03-18T21:43:36;101070.41;;;11.64;82.38
29417;BME280;28421;51.030;4.006;2023-03-18T21:46:03;101074.31;;;11.62;82.09
29417;BME280;28421;51.030;4.006;2023-03-18T21:48:29;101041.88;;;11.39;82.02
29417;BME280;28421;51.030;4.006;2023-03-18T21:51:01;101019.19;;;11.33;81.96
29417;BME280;28421;51.030;4.006;2023-03-18T21:53:57;101015.31;;;11.28;81.97
29417;BME280;28421;51.030;4.006;2023-03-18T21:56:23;101019.34;;;11.32;82.37
29417;BME280;28421;51.030;4.006;2023-03-18T21:58:48;101057.31;;;11.61;81.96
29417;BME280;28421;51.030;4.006;2023-03-18T22:01:16;101063.53;;;11.62;81.86